George Island, Canada
Current Conditions -  °F | °C
As of 2:41 AM on Saturday 22 Nov 2014 (Local Time) from CYNE Reporting Station
Light Snow Light Snow  
Wind Chill:   Ceiling: 1900
Heat Index: 14°   Visibility: 9mi
Dew Point:   Wind: 7mph
Humidity: 79%   Direction: 340°NNW
Pressure: 29.62"   Gusts: NA
Location:  52.82°N, 97.6°W
Report Text: CYNE 220841Z AUTO 34006KT 9SM -SN OVC019 M10/M13 A2962 RMK SLP046
Loading
Personal Weather Stations






























Interactive Weather Map New forecast layout! Learn more

10-Day Weather Forecast

Advertisements
Track Severe Weather on mobile